Impacts METAR Board INFO
IDs:

KPHX - Phoenix/Sky Harbor, AZ, US

Updated at: 1033 UTC 20 Jan 2018
Potential Impact None Slight Moderate High
Time19/22Z 19/23Z 20/00Z 20/01Z 20/02Z 20/03Z 20/04Z 20/05Z 20/06Z 20/07Z 20/08Z 20/09Z 20/10Z
VIS10 10 10 10 10 10 10 10 10 10 10 10 10
CIG290 290 -- -- -- -- -- -- -- -- -- -- --
CoverBKNBKNSCTSCTFEWCLRCLRCLRCLRCLRCLRCLRFEW
FltCatVFRVFRVFRVFRVFRVFRVFRVFRVFRVFRVFRVFRVFR
WX--------------------------
WDir13015001000001000100909090
WSpd4 4 0 3 0 0 0 4 0 9 8 7 8
WGst-- -- -- -- -- -- -- -- -- -- -- -- --
Raw hourly METARs
KPHX 192151Z 13004KT 10SM SCT250 BKN290 24/M03 A2990 RMK AO2 SLP113 T02391028
KPHX 192251Z 15004KT 10SM SCT250 BKN290 24/M03 A2988 RMK AO2 SLP106 T02441033
KPHX 192351Z 00000KT 10SM FEW250 SCT290 24/M03 A2986 RMK AO2 SLP101 T02391033 10250 20183 56020
KPHX 200051Z 10003KT 10SM FEW250 SCT290 23/M03 A2984 RMK AO2 SLP096 T02281028
KPHX 200151Z 00000KT 10SM FEW250 21/M02 A2984 RMK AO2 SLP096 T02061017
KPHX 200251Z 00000KT 10SM CLR 18/M01 A2984 RMK AO2 SLP098 T01831006 55006
KPHX 200351Z 00000KT 10SM CLR 17/M01 A2984 RMK AO2 SLP096 T01721006
KPHX 200451Z 10004KT 10SM CLR 16/01 A2984 RMK AO2 SLP095 T01560011
KPHX 200551Z 00000KT 10SM CLR 16/01 A2984 RMK AO2 SLP096 T01560006 10239 20150 53001
KPHX 200651Z 10009KT 10SM CLR 15/M01 A2983 RMK AO2 SLP092 T01501011 402500089
KPHX 200751Z 09008KT 10SM CLR 13/00 A2982 RMK AO2 SLP088 T01330000
KPHX 200851Z 09007KT 10SM CLR 13/M02 A2982 RMK AO2 SLP088 T01281017 56007
KPHX 200951Z 09008KT 10SM FEW250 12/M01 A2981 RMK AO2 SLP084 T01221011